sensor_id;sensor_type;location;lat;lon;timestamp;P1;durP1;ratioP1;P2;durP2;ratioP2
21110;SDS011;10713;51.912;4.494;2022-07-25T00:00:19;6.30;;;4.95;;
21110;SDS011;10713;51.912;4.494;2022-07-25T00:02:44;9.38;;;5.28;;
21110;SDS011;10713;51.912;4.494;2022-07-25T00:05:10;6.20;;;4.78;;
21110;SDS011;10713;51.912;4.494;2022-07-25T00:07:35;7.80;;;4.68;;
21110;SDS011;10713;51.912;4.494;2022-07-25T00:10:01;8.73;;;5.18;;
21110;SDS011;10713;51.912;4.494;2022-07-25T00:12:26;10.65;;;5.18;;
21110;SDS011;10713;51.912;4.494;2022-07-25T00:14:52;6.65;;;4.63;;
21110;SDS011;10713;51.912;4.494;2022-07-25T00:17:17;10.25;;;4.40;;
21110;SDS011;10713;51.912;4.494;2022-07-25T00:19:42;7.53;;;4.53;;
21110;SDS011;10713;51.912;4.494;2022-07-25T00:22:08;8.05;;;4.60;;
21110;SDS011;10713;51.912;4.494;2022-07-25T00:24:33;8.77;;;5.25;;
21110;SDS011;10713;51.912;4.494;2022-07-25T00:26:59;8.13;;;4.82;;
21110;SDS011;10713;51.912;4.494;2022-07-25T00:29:24;6.05;;;4.32;;
21110;SDS011;10713;51.912;4.494;2022-07-25T00:31:49;10.23;;;4.57;;
21110;SDS011;10713;51.912;4.494;2022-07-25T00:34:16;10.00;;;4.38;;
21110;SDS011;10713;51.912;4.494;2022-07-25T00:36:41;7.15;;;4.57;;
21110;SDS011;10713;51.912;4.494;2022-07-25T00:39:06;9.52;;;4.13;;
21110;SDS011;10713;51.912;4.494;2022-07-25T00:41:32;5.60;;;3.83;;
21110;SDS011;10713;51.912;4.494;2022-07-25T00:43:57;7.68;;;4.47;;
21110;SDS011;10713;51.912;4.494;2022-07-25T00:46:23;8.85;;;4.30;;
21110;SDS011;10713;51.912;4.494;2022-07-25T00:48:48;4.93;;;4.10;;
21110;SDS011;10713;51.912;4.494;2022-07-25T00:51:13;6.38;;;4.20;;
21110;SDS011;10713;51.912;4.494;2022-07-25T00:53:40;6.53;;;4.13;;
21110;SDS011;10713;51.912;4.494;2022-07-25T00:56:05;5.25;;;4.20;;
21110;SDS011;10713;51.912;4.494;2022-07-25T00:58:31;5.93;;;4.20;;
21110;SDS011;10713;51.912;4.494;2022-07-25T01:00:57;5.00;;;4.00;;
21110;SDS011;10713;51.912;4.494;2022-07-25T01:03:23;7.18;;;4.07;;
21110;SDS011;10713;51.912;4.494;2022-07-25T01:05:49;5.70;;;3.85;;
21110;SDS011;10713;51.912;4.494;2022-07-25T01:08:16;5.97;;;4.47;;
21110;SDS011;10713;51.912;4.494;2022-07-25T01:10:42;9.13;;;4.45;;
21110;SDS011;10713;51.912;4.494;2022-07-25T01:13:08;8.98;;;4.25;;
21110;SDS011;10713;51.912;4.494;2022-07-25T01:15:33;5.45;;;3.78;;
21110;SDS011;10713;51.912;4.494;2022-07-25T01:17:59;4.55;;;3.92;;
21110;SDS011;10713;51.912;4.494;2022-07-25T01:20:25;4.80;;;3.65;;
21110;SDS011;10713;51.912;4.494;2022-07-25T01:22:51;5.85;;;4.22;;
21110;SDS011;10713;51.912;4.494;2022-07-25T01:25:17;6.32;;;4.72;;
21110;SDS011;10713;51.912;4.494;2022-07-25T01:27:44;6.80;;;4.90;;
21110;SDS011;10713;51.912;4.494;2022-07-25T01:30:11;6.47;;;4.70;;
21110;SDS011;10713;51.912;4.494;2022-07-25T01:32:38;7.75;;;5.25;;
21110;SDS011;10713;51.912;4.494;2022-07-25T01:35:05;6.45;;;4.90;;
21110;SDS011;10713;51.912;4.494;2022-07-25T01:37:31;9.98;;;5.10;;
21110;SDS011;10713;51.912;4.494;2022-07-25T01:39:56;7.75;;;4.63;;
21110;SDS011;10713;51.912;4.494;2022-07-25T01:42:22;8.68;;;5.50;;
21110;SDS011;10713;51.912;4.494;2022-07-25T01:44:47;7.20;;;5.50;;
21110;SDS011;10713;51.912;4.494;2022-07-25T01:47:13;8.82;;;5.30;;
21110;SDS011;10713;51.912;4.494;2022-07-25T01:49:38;9.63;;;5.90;;
21110;SDS011;10713;51.912;4.494;2022-07-25T01:52:04;7.82;;;5.43;;
21110;SDS011;10713;51.912;4.494;2022-07-25T01:54:30;10.45;;;6.07;;
21110;SDS011;10713;51.912;4.494;2022-07-25T01:56:56;8.65;;;6.15;;
21110;SDS011;10713;51.912;4.494;2022-07-25T01:59:21;9.93;;;6.45;;
21110;SDS011;10713;51.912;4.494;2022-07-25T02:01:47;7.80;;;6.20;;
21110;SDS011;10713;51.912;4.494;2022-07-25T02:04:12;9.00;;;6.53;;
21110;SDS011;10713;51.912;4.494;2022-07-25T02:06:37;12.85;;;6.15;;
21110;SDS011;10713;51.912;4.494;2022-07-25T02:09:05;10.48;;;6.90;;
21110;SDS011;10713;51.912;4.494;2022-07-25T02:11:31;9.02;;;6.55;;
21110;SDS011;10713;51.912;4.494;2022-07-25T02:13:57;9.45;;;7.13;;
21110;SDS011;10713;51.912;4.494;2022-07-25T02:16:22;11.13;;;6.82;;
21110;SDS011;10713;51.912;4.494;2022-07-25T02:18:48;9.77;;;6.75;;
21110;SDS011;10713;51.912;4.494;2022-07-25T02:21:13;9.93;;;5.93;;
21110;SDS011;10713;51.912;4.494;2022-07-25T02:23:38;11.70;;;6.45;;
21110;SDS011;10713;51.912;4.494;2022-07-25T02:26:04;11.20;;;6.03;;
21110;SDS011;10713;51.912;4.494;2022-07-25T02:28:30;9.05;;;6.72;;
21110;SDS011;10713;51.912;4.494;2022-07-25T02:30:55;14.27;;;7.30;;
21110;SDS011;10713;51.912;4.494;2022-07-25T02:33:21;10.60;;;7.25;;
21110;SDS011;10713;51.912;4.494;2022-07-25T02:35:46;15.85;;;6.53;;
21110;SDS011;10713;51.912;4.494;2022-07-25T02:38:12;13.00;;;7.72;;
21110;SDS011;10713;51.912;4.494;2022-07-25T02:40:43;11.15;;;7.93;;
21110;SDS011;10713;51.912;4.494;2022-07-25T02:43:13;10.25;;;6.82;;
21110;SDS011;10713;51.912;4.494;2022-07-25T02:45:39;14.63;;;7.70;;
21110;SDS011;10713;51.912;4.494;2022-07-25T02:48:05;15.15;;;8.00;;
21110;SDS011;10713;51.912;4.494;2022-07-25T02:50:30;14.55;;;7.32;;
21110;SDS011;10713;51.912;4.494;2022-07-25T02:52:56;11.98;;;6.63;;
21110;SDS011;10713;51.912;4.494;2022-07-25T02:55:21;14.38;;;6.65;;
21110;SDS011;10713;51.912;4.494;2022-07-25T02:57:46;11.68;;;5.38;;
21110;SDS011;10713;51.912;4.494;2022-07-25T03:00:12;8.75;;;5.13;;
21110;SDS011;10713;51.912;4.494;2022-07-25T03:02:38;7.93;;;5.25;;
21110;SDS011;10713;51.912;4.494;2022-07-25T03:05:05;7.93;;;5.45;;
21110;SDS011;10713;51.912;4.494;2022-07-25T03:07:34;7.97;;;5.25;;
21110;SDS011;10713;51.912;4.494;2022-07-25T03:10:00;7.60;;;5.18;;
21110;SDS011;10713;51.912;4.494;2022-07-25T03:12:25;5.47;;;4.32;;
21110;SDS011;10713;51.912;4.494;2022-07-25T03:14:51;7.25;;;4.53;;
21110;SDS011;10713;51.912;4.494;2022-07-25T03:17:16;9.10;;;4.85;;
21110;SDS011;10713;51.912;4.494;2022-07-25T03:19:42;7.35;;;4.80;;
21110;SDS011;10713;51.912;4.494;2022-07-25T03:22:07;7.70;;;5.10;;
21110;SDS011;10713;51.912;4.494;2022-07-25T03:24:32;5.93;;;4.65;;
21110;SDS011;10713;51.912;4.494;2022-07-25T03:26:58;7.18;;;5.10;;
21110;SDS011;10713;51.912;4.494;2022-07-25T03:29:23;6.97;;;5.05;;
21110;SDS011;10713;51.912;4.494;2022-07-25T03:31:49;8.77;;;5.00;;
21110;SDS011;10713;51.912;4.494;2022-07-25T03:34:14;8.73;;;5.05;;
21110;SDS011;10713;51.912;4.494;2022-07-25T03:36:39;8.75;;;4.80;;
21110;SDS011;10713;51.912;4.494;2022-07-25T03:39:04;6.13;;;4.90;;
21110;SDS011;10713;51.912;4.494;2022-07-25T03:41:30;7.50;;;4.88;;
21110;SDS011;10713;51.912;4.494;2022-07-25T03:43:55;6.68;;;4.88;;
21110;SDS011;10713;51.912;4.494;2022-07-25T03:46:20;7.38;;;5.05;;
21110;SDS011;10713;51.912;4.494;2022-07-25T03:48:47;6.53;;;4.95;;
21110;SDS011;10713;51.912;4.494;2022-07-25T03:51:12;8.70;;;5.05;;
21110;SDS011;10713;51.912;4.494;2022-07-25T03:53:37;7.55;;;5.05;;
21110;SDS011;10713;51.912;4.494;2022-07-25T03:56:22;7.53;;;4.63;;
21110;SDS011;10713;51.912;4.494;2022-07-25T03:58:48;6.85;;;4.55;;
21110;SDS011;10713;51.912;4.494;2022-07-25T04:01:13;5.88;;;4.45;;
21110;SDS011;10713;51.912;4.494;2022-07-25T04:03:39;7.90;;;4.47;;
21110;SDS011;10713;51.912;4.494;2022-07-25T04:06:04;6.25;;;4.50;;
21110;SDS011;10713;51.912;4.494;2022-07-25T04:08:29;6.63;;;4.13;;
21110;SDS011;10713;51.912;4.494;2022-07-25T04:10:55;6.70;;;4.10;;
21110;SDS011;10713;51.912;4.494;2022-07-25T04:13:20;7.07;;;3.83;;
21110;SDS011;10713;51.912;4.494;2022-07-25T04:15:45;8.82;;;4.45;;
21110;SDS011;10713;51.912;4.494;2022-07-25T04:18:11;6.30;;;3.78;;
21110;SDS011;10713;51.912;4.494;2022-07-25T04:20:36;6.45;;;4.30;;
21110;SDS011;10713;51.912;4.494;2022-07-25T04:23:02;7.40;;;4.35;;
21110;SDS011;10713;51.912;4.494;2022-07-25T04:25:27;7.63;;;4.32;;
21110;SDS011;10713;51.912;4.494;2022-07-25T04:27:52;8.43;;;4.32;;
21110;SDS011;10713;51.912;4.494;2022-07-25T04:30:18;7.55;;;3.88;;
21110;SDS011;10713;51.912;4.494;2022-07-25T04:32:44;5.65;;;3.70;;
21110;SDS011;10713;51.912;4.494;2022-07-25T04:35:10;5.28;;;3.00;;
21110;SDS011;10713;51.912;4.494;2022-07-25T04:37:35;5.60;;;2.80;;
21110;SDS011;10713;51.912;4.494;2022-07-25T04:40:01;4.78;;;3.00;;
21110;SDS011;10713;51.912;4.494;2022-07-25T04:42:27;3.75;;;2.80;;
21110;SDS011;10713;51.912;4.494;2022-07-25T04:44:53;5.88;;;2.72;;
21110;SDS011;10713;51.912;4.494;2022-07-25T04:47:18;5.88;;;2.75;;
21110;SDS011;10713;51.912;4.494;2022-07-25T04:49:43;5.25;;;2.70;;
21110;SDS011;10713;51.912;4.494;2022-07-25T04:52:09;6.57;;;2.50;;
21110;SDS011;10713;51.912;4.494;2022-07-25T04:54:34;3.35;;;2.08;;
21110;SDS011;10713;51.912;4.494;2022-07-25T04:56:59;3.85;;;2.28;;
21110;SDS011;10713;51.912;4.494;2022-07-25T04:59:25;5.43;;;2.30;;
21110;SDS011;10713;51.912;4.494;2022-07-25T05:01:50;4.40;;;2.40;;
21110;SDS011;10713;51.912;4.494;2022-07-25T05:04:15;2.80;;;2.10;;
21110;SDS011;10713;51.912;4.494;2022-07-25T05:06:41;4.25;;;2.50;;
21110;SDS011;10713;51.912;4.494;2022-07-25T05:09:06;2.78;;;2.10;;
21110;SDS011;10713;51.912;4.494;2022-07-25T05:11:32;4.28;;;2.20;;
21110;SDS011;10713;51.912;4.494;2022-07-25T05:13:57;3.63;;;2.40;;
21110;SDS011;10713;51.912;4.494;2022-07-25T05:16:22;4.50;;;2.38;;
21110;SDS011;10713;51.912;4.494;2022-07-25T05:18:47;7.07;;;3.00;;
21110;SDS011;10713;51.912;4.494;2022-07-25T05:21:13;5.00;;;2.40;;
21110;SDS011;10713;51.912;4.494;2022-07-25T05:23:38;4.53;;;2.60;;
21110;SDS011;10713;51.912;4.494;2022-07-25T05:26:04;4.13;;;2.47;;
21110;SDS011;10713;51.912;4.494;2022-07-25T05:28:29;7.82;;;2.40;;
21110;SDS011;10713;51.912;4.494;2022-07-25T05:30:54;5.38;;;2.08;;
21110;SDS011;10713;51.912;4.494;2022-07-25T05:33:20;9.63;;;2.55;;
21110;SDS011;10713;51.912;4.494;2022-07-25T05:35:45;5.20;;;2.30;;
21110;SDS011;10713;51.912;4.494;2022-07-25T05:38:10;9.40;;;2.58;;
21110;SDS011;10713;51.912;4.494;2022-07-25T05:40:36;5.80;;;2.63;;
21110;SDS011;10713;51.912;4.494;2022-07-25T05:43:01;5.40;;;2.50;;
21110;SDS011;10713;51.912;4.494;2022-07-25T05:45:26;7.28;;;2.45;;
21110;SDS011;10713;51.912;4.494;2022-07-25T05:47:52;8.50;;;2.80;;
21110;SDS011;10713;51.912;4.494;2022-07-25T05:50:17;8.82;;;2.50;;
21110;SDS011;10713;51.912;4.494;2022-07-25T05:52:42;4.25;;;2.25;;
21110;SDS011;10713;51.912;4.494;2022-07-25T05:55:08;8.90;;;2.40;;
21110;SDS011;10713;51.912;4.494;2022-07-25T05:57:34;7.10;;;2.30;;
21110;SDS011;10713;51.912;4.494;2022-07-25T06:00:01;6.18;;;2.90;;
21110;SDS011;10713;51.912;4.494;2022-07-25T06:02:28;9.27;;;2.30;;
21110;SDS011;10713;51.912;4.494;2022-07-25T06:04:53;5.43;;;2.40;;
21110;SDS011;10713;51.912;4.494;2022-07-25T06:07:18;9.57;;;2.30;;
21110;SDS011;10713;51.912;4.494;2022-07-25T06:09:44;16.17;;;2.47;;
21110;SDS011;10713;51.912;4.494;2022-07-25T06:12:09;7.30;;;2.50;;
21110;SDS011;10713;51.912;4.494;2022-07-25T06:14:34;9.45;;;2.80;;
21110;SDS011;10713;51.912;4.494;2022-07-25T06:17:00;14.55;;;2.97;;
21110;SDS011;10713;51.912;4.494;2022-07-25T06:19:25;7.50;;;2.88;;
21110;SDS011;10713;51.912;4.494;2022-07-25T06:21:50;5.97;;;2.20;;
21110;SDS011;10713;51.912;4.494;2022-07-25T06:24:16;13.10;;;2.90;;
21110;SDS011;10713;51.912;4.494;2022-07-25T06:26:41;18.40;;;2.45;;
21110;SDS011;10713;51.912;4.494;2022-07-25T06:29:07;10.82;;;2.88;;
21110;SDS011;10713;51.912;4.494;2022-07-25T06:31:32;5.97;;;2.55;;
21110;SDS011;10713;51.912;4.494;2022-07-25T06:33:57;8.30;;;1.98;;
21110;SDS011;10713;51.912;4.494;2022-07-25T06:36:23;9.13;;;2.33;;
21110;SDS011;10713;51.912;4.494;2022-07-25T06:38:48;7.00;;;2.00;;
21110;SDS011;10713;51.912;4.494;2022-07-25T06:41:14;6.13;;;2.20;;
21110;SDS011;10713;51.912;4.494;2022-07-25T06:43:40;5.72;;;1.60;;
21110;SDS011;10713;51.912;4.494;2022-07-25T06:46:06;10.93;;;2.20;;
21110;SDS011;10713;51.912;4.494;2022-07-25T06:48:31;6.45;;;1.92;;
21110;SDS011;10713;51.912;4.494;2022-07-25T06:50:57;6.55;;;2.00;;
21110;SDS011;10713;51.912;4.494;2022-07-25T06:53:22;9.02;;;2.13;;
21110;SDS011;10713;51.912;4.494;2022-07-25T06:55:47;6.72;;;1.67;;
21110;SDS011;10713;51.912;4.494;2022-07-25T06:58:13;5.88;;;1.80;;
21110;SDS011;10713;51.912;4.494;2022-07-25T07:00:38;6.15;;;1.80;;
21110;SDS011;10713;51.912;4.494;2022-07-25T07:03:03;6.95;;;1.88;;
21110;SDS011;10713;51.912;4.494;2022-07-25T07:05:30;6.30;;;2.10;;
21110;SDS011;10713;51.912;4.494;2022-07-25T07:07:58;7.47;;;1.92;;
21110;SDS011;10713;51.912;4.494;2022-07-25T07:10:24;8.63;;;2.05;;
21110;SDS011;10713;51.912;4.494;2022-07-25T07:12:50;10.02;;;2.35;;
21110;SDS011;10713;51.912;4.494;2022-07-25T07:15:26;11.20;;;2.08;;
21110;SDS011;10713;51.912;4.494;2022-07-25T07:17:51;6.20;;;2.03;;
21110;SDS011;10713;51.912;4.494;2022-07-25T07:20:16;9.23;;;2.38;;
21110;SDS011;10713;51.912;4.494;2022-07-25T07:22:45;8.93;;;2.25;;
21110;SDS011;10713;51.912;4.494;2022-07-25T07:25:12;8.95;;;3.00;;
21110;SDS011;10713;51.912;4.494;2022-07-25T07:27:39;5.63;;;2.13;;
21110;SDS011;10713;51.912;4.494;2022-07-25T07:30:04;10.73;;;2.38;;
21110;SDS011;10713;51.912;4.494;2022-07-25T07:32:30;5.80;;;2.13;;
21110;SDS011;10713;51.912;4.494;2022-07-25T07:34:56;8.65;;;2.40;;
21110;SDS011;10713;51.912;4.494;2022-07-25T07:37:21;8.27;;;2.30;;
21110;SDS011;10713;51.912;4.494;2022-07-25T07:39:46;7.82;;;2.03;;
21110;SDS011;10713;51.912;4.494;2022-07-25T07:42:12;11.13;;;3.22;;
21110;SDS011;10713;51.912;4.494;2022-07-25T07:44:37;10.07;;;3.05;;
21110;SDS011;10713;51.912;4.494;2022-07-25T07:47:02;8.65;;;2.03;;
21110;SDS011;10713;51.912;4.494;2022-07-25T07:49:28;6.63;;;2.10;;
21110;SDS011;10713;51.912;4.494;2022-07-25T07:51:53;6.13;;;2.35;;
21110;SDS011;10713;51.912;4.494;2022-07-25T07:54:19;7.55;;;2.20;;
21110;SDS011;10713;51.912;4.494;2022-07-25T07:57:02;6.25;;;2.65;;
21110;SDS011;10713;51.912;4.494;2022-07-25T07:59:28;10.63;;;3.38;;
21110;SDS011;10713;51.912;4.494;2022-07-25T08:01:53;7.93;;;2.80;;
21110;SDS011;10713;51.912;4.494;2022-07-25T08:04:19;6.65;;;2.25;;
21110;SDS011;10713;51.912;4.494;2022-07-25T08:06:44;7.33;;;2.53;;
21110;SDS011;10713;51.912;4.494;2022-07-25T08:09:09;7.35;;;2.40;;
21110;SDS011;10713;51.912;4.494;2022-07-25T08:11:35;6.32;;;2.20;;
21110;SDS011;10713;51.912;4.494;2022-07-25T08:14:00;11.80;;;2.88;;
21110;SDS011;10713;51.912;4.494;2022-07-25T08:16:25;6.82;;;2.13;;
21110;SDS011;10713;51.912;4.494;2022-07-25T08:18:51;7.55;;;2.42;;
21110;SDS011;10713;51.912;4.494;2022-07-25T08:21:16;6.15;;;2.10;;
21110;SDS011;10713;51.912;4.494;2022-07-25T08:23:41;7.72;;;2.22;;
21110;SDS011;10713;51.912;4.494;2022-07-25T08:26:09;6.93;;;2.42;;
21110;SDS011;10713;51.912;4.494;2022-07-25T08:28:34;6.80;;;2.42;;
21110;SDS011;10713;51.912;4.494;2022-07-25T08:31:00;5.20;;;2.17;;
21110;SDS011;10713;51.912;4.494;2022-07-25T08:33:25;7.53;;;3.05;;
21110;SDS011;10713;51.912;4.494;2022-07-25T08:35:52;6.88;;;2.30;;
21110;SDS011;10713;51.912;4.494;2022-07-25T08:38:22;6.35;;;1.70;;
21110;SDS011;10713;51.912;4.494;2022-07-25T08:40:48;5.65;;;2.10;;
21110;SDS011;10713;51.912;4.494;2022-07-25T08:43:14;4.72;;;2.35;;
21110;SDS011;10713;51.912;4.494;2022-07-25T08:45:42;7.00;;;2.20;;
21110;SDS011;10713;51.912;4.494;2022-07-25T08:48:26;9.13;;;2.40;;
21110;SDS011;10713;51.912;4.494;2022-07-25T08:50:52;3.40;;;2.10;;
21110;SDS011;10713;51.912;4.494;2022-07-25T08:53:20;8.02;;;2.35;;
21110;SDS011;10713;51.912;4.494;2022-07-25T08:55:46;6.30;;;1.90;;
21110;SDS011;10713;51.912;4.494;2022-07-25T08:58:12;6.20;;;2.28;;
21110;SDS011;10713;51.912;4.494;2022-07-25T09:00:40;7.38;;;2.33;;
21110;SDS011;10713;51.912;4.494;2022-07-25T09:03:06;7.03;;;2.00;;
21110;SDS011;10713;51.912;4.494;2022-07-25T09:05:32;7.53;;;2.53;;
21110;SDS011;10713;51.912;4.494;2022-07-25T09:08:15;4.80;;;1.80;;
21110;SDS011;10713;51.912;4.494;2022-07-25T09:10:48;6.72;;;1.92;;
21110;SDS011;10713;51.912;4.494;2022-07-25T09:13:16;10.20;;;2.10;;
21110;SDS011;10713;51.912;4.494;2022-07-25T09:15:44;5.20;;;1.92;;
21110;SDS011;10713;51.912;4.494;2022-07-25T09:18:10;6.88;;;2.65;;
21110;SDS011;10713;51.912;4.494;2022-07-25T09:23:05;9.80;;;2.65;;
21110;SDS011;10713;51.912;4.494;2022-07-25T09:25:32;7.00;;;2.00;;
21110;SDS011;10713;51.912;4.494;2022-07-25T09:28:14;6.47;;;2.95;;
21110;SDS011;10713;51.912;4.494;2022-07-25T09:33:52;6.22;;;2.50;;
21110;SDS011;10713;51.912;4.494;2022-07-25T09:36:24;7.65;;;2.58;;
21110;SDS011;10713;51.912;4.494;2022-07-25T09:38:53;12.20;;;3.28;;
21110;SDS011;10713;51.912;4.494;2022-07-25T09:41:34;7.15;;;2.95;;
21110;SDS011;10713;51.912;4.494;2022-07-25T09:44:01;9.23;;;2.35;;
21110;SDS011;10713;51.912;4.494;2022-07-25T09:46:28;5.88;;;2.20;;
21110;SDS011;10713;51.912;4.494;2022-07-25T09:48:55;8.85;;;2.40;;
21110;SDS011;10713;51.912;4.494;2022-07-25T09:51:23;12.73;;;2.25;;
21110;SDS011;10713;51.912;4.494;2022-07-25T09:53:51;6.60;;;2.33;;
21110;SDS011;10713;51.912;4.494;2022-07-25T09:56:17;10.43;;;2.85;;
21110;SDS011;10713;51.912;4.494;2022-07-25T09:58:42;9.18;;;3.03;;
21110;SDS011;10713;51.912;4.494;2022-07-25T10:01:08;12.20;;;3.30;;
21110;SDS011;10713;51.912;4.494;2022-07-25T10:06:19;9.45;;;2.53;;
21110;SDS011;10713;51.912;4.494;2022-07-25T10:08:49;7.70;;;2.80;;
21110;SDS011;10713;51.912;4.494;2022-07-25T10:11:22;8.63;;;2.40;;
21110;SDS011;10713;51.912;4.494;2022-07-25T10:13:52;9.25;;;3.47;;
21110;SDS011;10713;51.912;4.494;2022-07-25T10:16:22;8.90;;;3.15;;
21110;SDS011;10713;51.912;4.494;2022-07-25T10:18:49;10.20;;;3.00;;
21110;SDS011;10713;51.912;4.494;2022-07-25T10:21:17;9.75;;;3.20;;
21110;SDS011;10713;51.912;4.494;2022-07-25T10:23:43;10.50;;;2.53;;
21110;SDS011;10713;51.912;4.494;2022-07-25T10:26:13;9.23;;;2.60;;
21110;SDS011;10713;51.912;4.494;2022-07-25T10:28:44;11.07;;;2.70;;
21110;SDS011;10713;51.912;4.494;2022-07-25T10:31:15;9.07;;;2.75;;
21110;SDS011;10713;51.912;4.494;2022-07-25T10:33:52;8.70;;;2.45;;
21110;SDS011;10713;51.912;4.494;2022-07-25T10:36:20;10.48;;;3.15;;
21110;SDS011;10713;51.912;4.494;2022-07-25T10:38:49;13.55;;;3.53;;
21110;SDS011;10713;51.912;4.494;2022-07-25T10:41:15;8.57;;;2.95;;
21110;SDS011;10713;51.912;4.494;2022-07-25T10:43:42;10.15;;;3.08;;
21110;SDS011;10713;51.912;4.494;2022-07-25T10:46:13;10.10;;;2.80;;
21110;SDS011;10713;51.912;4.494;2022-07-25T10:48:41;9.05;;;2.90;;
21110;SDS011;10713;51.912;4.494;2022-07-25T10:53:34;11.00;;;3.08;;
21110;SDS011;10713;51.912;4.494;2022-07-25T10:56:21;13.38;;;3.80;;
21110;SDS011;10713;51.912;4.494;2022-07-25T11:01:20;9.50;;;2.75;;
21110;SDS011;10713;51.912;4.494;2022-07-25T11:03:47;11.52;;;2.60;;
21110;SDS011;10713;51.912;4.494;2022-07-25T11:06:14;12.32;;;3.05;;
21110;SDS011;10713;51.912;4.494;2022-07-25T11:08:40;13.30;;;3.28;;
21110;SDS011;10713;51.912;4.494;2022-07-25T11:11:08;12.75;;;3.15;;
21110;SDS011;10713;51.912;4.494;2022-07-25T11:13:40;8.25;;;2.90;;
21110;SDS011;10713;51.912;4.494;2022-07-25T11:16:06;10.68;;;2.60;;
21110;SDS011;10713;51.912;4.494;2022-07-25T11:18:36;12.85;;;2.75;;
21110;SDS011;10713;51.912;4.494;2022-07-25T11:21:04;7.55;;;2.60;;
21110;SDS011;10713;51.912;4.494;2022-07-25T11:23:32;8.63;;;2.35;;
21110;SDS011;10713;51.912;4.494;2022-07-25T11:26:05;9.30;;;2.20;;
21110;SDS011;10713;51.912;4.494;2022-07-25T11:28:47;9.00;;;2.20;;
21110;SDS011;10713;51.912;4.494;2022-07-25T11:31:14;8.40;;;2.10;;
21110;SDS011;10713;51.912;4.494;2022-07-25T11:33:42;5.95;;;1.90;;
21110;SDS011;10713;51.912;4.494;2022-07-25T11:36:10;5.82;;;2.25;;
21110;SDS011;10713;51.912;4.494;2022-07-25T11:38:37;8.98;;;2.05;;
21110;SDS011;10713;51.912;4.494;2022-07-25T11:41:04;8.35;;;2.10;;
21110;SDS011;10713;51.912;4.494;2022-07-25T11:43:30;9.07;;;1.83;;
21110;SDS011;10713;51.912;4.494;2022-07-25T11:46:00;9.88;;;1.80;;
21110;SDS011;10713;51.912;4.494;2022-07-25T11:48:36;12.20;;;2.00;;
21110;SDS011;10713;51.912;4.494;2022-07-25T11:51:07;7.80;;;1.67;;
21110;SDS011;10713;51.912;4.494;2022-07-25T11:53:49;7.78;;;2.00;;
21110;SDS011;10713;51.912;4.494;2022-07-25T11:58:42;6.43;;;2.10;;
21110;SDS011;10713;51.912;4.494;2022-07-25T12:01:12;9.63;;;1.83;;
21110;SDS011;10713;51.912;4.494;2022-07-25T12:03:38;5.47;;;1.88;;
21110;SDS011;10713;51.912;4.494;2022-07-25T12:06:08;6.60;;;2.25;;
21110;SDS011;10713;51.912;4.494;2022-07-25T12:08:38;8.85;;;2.78;;
21110;SDS011;10713;51.912;4.494;2022-07-25T12:11:17;11.30;;;3.05;;
21110;SDS011;10713;51.912;4.494;2022-07-25T12:13:44;12.88;;;3.17;;
21110;SDS011;10713;51.912;4.494;2022-07-25T12:16:10;11.23;;;3.10;;
21110;SDS011;10713;51.912;4.494;2022-07-25T12:18:36;10.15;;;3.20;;
21110;SDS011;10713;51.912;4.494;2022-07-25T12:21:02;11.93;;;3.00;;
21110;SDS011;10713;51.912;4.494;2022-07-25T12:23:27;8.07;;;2.38;;
21110;SDS011;10713;51.912;4.494;2022-07-25T12:25:53;7.57;;;2.42;;
21110;SDS011;10713;51.912;4.494;2022-07-25T12:28:18;9.75;;;1.73;;
21110;SDS011;10713;51.912;4.494;2022-07-25T12:30:44;8.63;;;2.22;;
21110;SDS011;10713;51.912;4.494;2022-07-25T12:33:10;8.15;;;1.85;;
21110;SDS011;10713;51.912;4.494;2022-07-25T12:35:36;10.38;;;2.30;;
21110;SDS011;10713;51.912;4.494;2022-07-25T12:38:02;6.20;;;1.75;;
21110;SDS011;10713;51.912;4.494;2022-07-25T12:40:28;6.00;;;1.67;;
21110;SDS011;10713;51.912;4.494;2022-07-25T12:42:54;10.40;;;1.88;;
21110;SDS011;10713;51.912;4.494;2022-07-25T12:45:19;6.93;;;1.60;;
21110;SDS011;10713;51.912;4.494;2022-07-25T12:47:45;7.22;;;2.05;;
21110;SDS011;10713;51.912;4.494;2022-07-25T12:50:11;8.18;;;1.83;;
21110;SDS011;10713;51.912;4.494;2022-07-25T12:52:37;11.25;;;2.10;;
21110;SDS011;10713;51.912;4.494;2022-07-25T12:55:06;10.25;;;2.20;;
21110;SDS011;10713;51.912;4.494;2022-07-25T12:57:36;14.20;;;2.10;;
21110;SDS011;10713;51.912;4.494;2022-07-25T13:00:06;5.47;;;1.65;;
21110;SDS011;10713;51.912;4.494;2022-07-25T13:02:34;9.68;;;2.42;;
21110;SDS011;10713;51.912;4.494;2022-07-25T13:04:59;9.68;;;2.00;;
21110;SDS011;10713;51.912;4.494;2022-07-25T13:07:25;8.23;;;2.05;;
21110;SDS011;10713;51.912;4.494;2022-07-25T13:09:50;10.05;;;2.20;;
21110;SDS011;10713;51.912;4.494;2022-07-25T13:12:16;10.10;;;1.80;;
21110;SDS011;10713;51.912;4.494;2022-07-25T13:14:41;10.15;;;1.75;;
21110;SDS011;10713;51.912;4.494;2022-07-25T13:17:06;7.90;;;1.60;;
21110;SDS011;10713;51.912;4.494;2022-07-25T13:19:32;6.97;;;1.60;;
21110;SDS011;10713;51.912;4.494;2022-07-25T13:21:57;4.88;;;1.90;;
21110;SDS011;10713;51.912;4.494;2022-07-25T13:24:23;6.20;;;1.98;;
21110;SDS011;10713;51.912;4.494;2022-07-25T13:26:48;5.40;;;1.50;;
21110;SDS011;10713;51.912;4.494;2022-07-25T13:29:14;8.60;;;1.63;;
21110;SDS011;10713;51.912;4.494;2022-07-25T13:31:39;3.17;;;1.05;;
21110;SDS011;10713;51.912;4.494;2022-07-25T13:34:05;6.22;;;1.60;;
21110;SDS011;10713;51.912;4.494;2022-07-25T13:36:35;6.72;;;1.83;;
21110;SDS011;10713;51.912;4.494;2022-07-25T13:39:02;4.40;;;1.30;;
21110;SDS011;10713;51.912;4.494;2022-07-25T13:41:28;6.63;;;1.60;;
21110;SDS011;10713;51.912;4.494;2022-07-25T13:43:53;6.85;;;1.90;;
21110;SDS011;10713;51.912;4.494;2022-07-25T13:46:19;5.45;;;1.70;;
21110;SDS011;10713;51.912;4.494;2022-07-25T13:48:44;7.13;;;1.75;;
21110;SDS011;10713;51.912;4.494;2022-07-25T13:51:10;5.78;;;1.40;;
21110;SDS011;10713;51.912;4.494;2022-07-25T13:53:35;6.60;;;1.30;;
21110;SDS011;10713;51.912;4.494;2022-07-25T13:56:02;4.20;;;1.10;;
21110;SDS011;10713;51.912;4.494;2022-07-25T13:58:27;4.93;;;1.30;;
21110;SDS011;10713;51.912;4.494;2022-07-25T14:00:53;4.82;;;1.30;;
21110;SDS011;10713;51.912;4.494;2022-07-25T14:03:19;8.10;;;1.40;;
21110;SDS011;10713;51.912;4.494;2022-07-25T14:05:44;6.78;;;1.40;;
21110;SDS011;10713;51.912;4.494;2022-07-25T14:08:10;6.80;;;1.58;;
21110;SDS011;10713;51.912;4.494;2022-07-25T14:10:37;5.78;;;1.55;;
21110;SDS011;10713;51.912;4.494;2022-07-25T14:13:02;8.55;;;1.60;;
21110;SDS011;10713;51.912;4.494;2022-07-25T14:15:28;9.00;;;1.48;;
21110;SDS011;10713;51.912;4.494;2022-07-25T14:17:53;5.05;;;1.20;;
21110;SDS011;10713;51.912;4.494;2022-07-25T14:20:19;5.55;;;1.45;;
21110;SDS011;10713;51.912;4.494;2022-07-25T14:22:44;4.28;;;1.20;;
21110;SDS011;10713;51.912;4.494;2022-07-25T14:25:09;7.10;;;1.35;;
21110;SDS011;10713;51.912;4.494;2022-07-25T14:27:35;8.43;;;1.50;;
21110;SDS011;10713;51.912;4.494;2022-07-25T14:30:01;4.45;;;1.30;;
21110;SDS011;10713;51.912;4.494;2022-07-25T14:32:27;5.47;;;1.80;;
21110;SDS011;10713;51.912;4.494;2022-07-25T14:34:53;13.32;;;1.38;;
21110;SDS011;10713;51.912;4.494;2022-07-25T14:37:19;5.03;;;1.05;;
21110;SDS011;10713;51.912;4.494;2022-07-25T14:39:45;6.50;;;1.42;;
21110;SDS011;10713;51.912;4.494;2022-07-25T14:42:11;4.57;;;1.70;;
21110;SDS011;10713;51.912;4.494;2022-07-25T14:44:37;4.45;;;1.30;;
21110;SDS011;10713;51.912;4.494;2022-07-25T14:47:04;7.50;;;1.45;;
21110;SDS011;10713;51.912;4.494;2022-07-25T14:49:30;9.23;;;1.92;;
21110;SDS011;10713;51.912;4.494;2022-07-25T14:51:55;5.43;;;1.10;;
21110;SDS011;10713;51.912;4.494;2022-07-25T14:54:21;6.28;;;1.38;;
21110;SDS011;10713;51.912;4.494;2022-07-25T14:56:46;6.43;;;1.10;;